sensor_id;sensor_type;location;lat;lon;timestamp;temperature;humidity
78896;HTU21D;68284;59.124;37.910;2024-01-11T00:02:24;-6.26;77.47
78896;HTU21D;68284;59.124;37.910;2024-01-11T00:04:50;-6.21;77.79
78896;HTU21D;68284;59.124;37.910;2024-01-11T00:07:17;-6.15;77.77
78896;HTU21D;68284;59.124;37.910;2024-01-11T00:09:47;-6.09;77.84
78896;HTU21D;68284;59.124;37.910;2024-01-11T00:12:14;-6.02;77.66
78896;HTU21D;68284;59.124;37.910;2024-01-11T00:14:41;-5.97;77.63
78896;HTU21D;68284;59.124;37.910;2024-01-11T00:17:08;-5.92;77.60
78896;HTU21D;68284;59.124;37.910;2024-01-11T00:19:34;-5.87;77.59
78896;HTU21D;68284;59.124;37.910;2024-01-11T00:22:02;-5.82;77.64
78896;HTU21D;68284;59.124;37.910;2024-01-11T00:24:28;-5.78;77.66
78896;HTU21D;68284;59.124;37.910;2024-01-11T00:26:56;-5.73;77.65
78896;HTU21D;68284;59.124;37.910;2024-01-11T00:29:22;-5.71;77.70
78896;HTU21D;68284;59.124;37.910;2024-01-11T00:31:49;-5.69;77.67
78896;HTU21D;68284;59.124;37.910;2024-01-11T00:34:15;-5.64;77.72
78896;HTU21D;68284;59.124;37.910;2024-01-11T00:36:42;-5.58;77.73
78896;HTU21D;68284;59.124;37.910;2024-01-11T00:39:08;-5.54;77.73
78896;HTU21D;68284;59.124;37.910;2024-01-11T00:41:35;-5.48;77.74
78896;HTU21D;68284;59.124;37.910;2024-01-11T00:44:02;-5.42;77.74
78896;HTU21D;68284;59.124;37.910;2024-01-11T00:46:28;-5.38;77.77
78896;HTU21D;68284;59.124;37.910;2024-01-11T00:48:55;-5.30;77.80
78896;HTU21D;68284;59.124;37.910;2024-01-11T00:51:21;-5.22;77.78
78896;HTU21D;68284;59.124;37.910;2024-01-11T00:53:49;-5.12;77.75
78896;HTU21D;68284;59.124;37.910;2024-01-11T00:56:19;-5.04;77.65
78896;HTU21D;68284;59.124;37.910;2024-01-11T00:58:46;-4.99;77.62
78896;HTU21D;68284;59.124;37.910;2024-01-11T01:01:12;-4.90;77.64
78896;HTU21D;68284;59.124;37.910;2024-01-11T01:03:39;-4.82;77.62
78896;HTU21D;68284;59.124;37.910;2024-01-11T01:06:06;-4.73;77.63
78896;HTU21D;68284;59.124;37.910;2024-01-11T01:08:33;-4.68;77.63
78896;HTU21D;68284;59.124;37.910;2024-01-11T01:10:59;-4.61;77.56
78896;HTU21D;68284;59.124;37.910;2024-01-11T01:13:26;-4.56;77.59
78896;HTU21D;68284;59.124;37.910;2024-01-11T01:15:52;-4.49;77.69
78896;HTU21D;68284;59.124;37.910;2024-01-11T01:18:19;-4.39;77.84
78896;HTU21D;68284;59.124;37.910;2024-01-11T01:20:45;-4.26;78.26
78896;HTU21D;68284;59.124;37.910;2024-01-11T01:23:12;-4.12;78.43
78896;HTU21D;68284;59.124;37.910;2024-01-11T01:25:38;-3.98;78.72
78896;HTU21D;68284;59.124;37.910;2024-01-11T01:28:05;-3.85;78.80
78896;HTU21D;68284;59.124;37.910;2024-01-11T01:30:32;-3.74;78.63
78896;HTU21D;68284;59.124;37.910;2024-01-11T01:32:58;-3.64;78.73
78896;HTU21D;68284;59.124;37.910;2024-01-11T01:35:24;-3.55;79.00
78896;HTU21D;68284;59.124;37.910;2024-01-11T01:37:51;-3.52;79.65
78896;HTU21D;68284;59.124;37.910;2024-01-11T01:40:17;-3.50;79.59
78896;HTU21D;68284;59.124;37.910;2024-01-11T01:42:44;-3.51;79.46
78896;HTU21D;68284;59.124;37.910;2024-01-11T01:45:10;-3.53;79.61
78896;HTU21D;68284;59.124;37.910;2024-01-11T01:47:37;-3.56;79.55
78896;HTU21D;68284;59.124;37.910;2024-01-11T01:50:04;-3.61;79.40
78896;HTU21D;68284;59.124;37.910;2024-01-11T01:52:32;-3.64;79.63
78896;HTU21D;68284;59.124;37.910;2024-01-11T01:54:59;-3.65;79.69
78896;HTU21D;68284;59.124;37.910;2024-01-11T01:57:27;-3.69;79.68
78896;HTU21D;68284;59.124;37.910;2024-01-11T01:59:54;-3.71;79.81
78896;HTU21D;68284;59.124;37.910;2024-01-11T02:02:21;-3.76;79.65
78896;HTU21D;68284;59.124;37.910;2024-01-11T02:04:47;-3.81;79.52
78896;HTU21D;68284;59.124;37.910;2024-01-11T02:07:14;-3.84;79.40
78896;HTU21D;68284;59.124;37.910;2024-01-11T02:09:42;-3.90;79.28
78896;HTU21D;68284;59.124;37.910;2024-01-11T02:12:10;-3.95;79.35
78896;HTU21D;68284;59.124;37.910;2024-01-11T02:14:38;-4.00;79.43
78896;HTU21D;68284;59.124;37.910;2024-01-11T02:17:05;-4.06;79.37
78896;HTU21D;68284;59.124;37.910;2024-01-11T02:19:32;-4.10;79.43
78896;HTU21D;68284;59.124;37.910;2024-01-11T02:22:05;-4.14;79.49
78896;HTU21D;68284;59.124;37.910;2024-01-11T02:24:31;-4.15;79.49
78896;HTU21D;68284;59.124;37.910;2024-01-11T02:26:59;-4.16;79.43
78896;HTU21D;68284;59.124;37.910;2024-01-11T02:29:26;-4.21;79.41
78896;HTU21D;68284;59.124;37.910;2024-01-11T02:31:54;-4.22;79.33
78896;HTU21D;68284;59.124;37.910;2024-01-11T02:34:22;-4.23;79.24
78896;HTU21D;68284;59.124;37.910;2024-01-11T02:36:48;-4.26;79.11
78896;HTU21D;68284;59.124;37.910;2024-01-11T02:39:16;-4.29;78.75
78896;HTU21D;68284;59.124;37.910;2024-01-11T02:41:45;-4.31;78.54
78896;HTU21D;68284;59.124;37.910;2024-01-11T02:44:11;-4.35;78.47
78896;HTU21D;68284;59.124;37.910;2024-01-11T02:46:38;-4.38;78.34
78896;HTU21D;68284;59.124;37.910;2024-01-11T02:49:04;-4.40;78.03
78896;HTU21D;68284;59.124;37.910;2024-01-11T02:51:31;-4.45;77.90
78896;HTU21D;68284;59.124;37.910;2024-01-11T02:53:58;-4.49;77.72
78896;HTU21D;68284;59.124;37.910;2024-01-11T02:56:24;-4.52;77.67
78896;HTU21D;68284;59.124;37.910;2024-01-11T02:58:51;-4.58;77.15
78896;HTU21D;68284;59.124;37.910;2024-01-11T03:01:17;-4.66;77.03
78896;HTU21D;68284;59.124;37.910;2024-01-11T03:03:44;-4.72;76.96
78896;HTU21D;68284;59.124;37.910;2024-01-11T03:06:10;-4.80;76.98
78896;HTU21D;68284;59.124;37.910;2024-01-11T03:08:36;-4.86;76.97
78896;HTU21D;68284;59.124;37.910;2024-01-11T03:11:03;-4.95;76.82
78896;HTU21D;68284;59.124;37.910;2024-01-11T03:13:29;-5.01;76.21
78896;HTU21D;68284;59.124;37.910;2024-01-11T03:15:56;-5.11;76.19
78896;HTU21D;68284;59.124;37.910;2024-01-11T03:18:23;-5.20;76.33
78896;HTU21D;68284;59.124;37.910;2024-01-11T03:20:49;-5.27;75.71
78896;HTU21D;68284;59.124;37.910;2024-01-11T03:23:16;-5.34;75.89
78896;HTU21D;68284;59.124;37.910;2024-01-11T03:25:42;-5.43;76.02
78896;HTU21D;68284;59.124;37.910;2024-01-11T03:28:09;-5.49;76.16
78896;HTU21D;68284;59.124;37.910;2024-01-11T03:30:36;-5.54;75.80
78896;HTU21D;68284;59.124;37.910;2024-01-11T03:33:02;-5.62;75.54
78896;HTU21D;68284;59.124;37.910;2024-01-11T03:35:29;-5.71;75.61
78896;HTU21D;68284;59.124;37.910;2024-01-11T03:37:55;-5.75;75.92
78896;HTU21D;68284;59.124;37.910;2024-01-11T03:40:22;-5.81;76.09
78896;HTU21D;68284;59.124;37.910;2024-01-11T03:42:49;-5.83;76.05
78896;HTU21D;68284;59.124;37.910;2024-01-11T03:45:18;-5.85;75.59
78896;HTU21D;68284;59.124;37.910;2024-01-11T03:47:45;-5.90;74.86
78896;HTU21D;68284;59.124;37.910;2024-01-11T03:50:12;-6.00;74.60
78896;HTU21D;68284;59.124;37.910;2024-01-11T03:52:39;-6.07;74.50
78896;HTU21D;68284;59.124;37.910;2024-01-11T03:55:06;-6.16;74.71
78896;HTU21D;68284;59.124;37.910;2024-01-11T03:57:33;-6.22;74.88
78896;HTU21D;68284;59.124;37.910;2024-01-11T04:00:01;-6.29;75.13
78896;HTU21D;68284;59.124;37.910;2024-01-11T04:02:30;-6.31;75.12
78896;HTU21D;68284;59.124;37.910;2024-01-11T04:04:56;-6.35;74.41
78896;HTU21D;68284;59.124;37.910;2024-01-11T04:07:23;-6.41;74.25
78896;HTU21D;68284;59.124;37.910;2024-01-11T04:09:56;-6.47;74.15
78896;HTU21D;68284;59.124;37.910;2024-01-11T04:12:24;-6.53;74.32
78896;HTU21D;68284;59.124;37.910;2024-01-11T04:14:50;-6.57;74.42
78896;HTU21D;68284;59.124;37.910;2024-01-11T04:17:16;-6.62;74.46
78896;HTU21D;68284;59.124;37.910;2024-01-11T04:19:45;-6.65;74.73
78896;HTU21D;68284;59.124;37.910;2024-01-11T04:22:11;-6.67;74.92
78896;HTU21D;68284;59.124;37.910;2024-01-11T04:24:42;-6.68;74.57
78896;HTU21D;68284;59.124;37.910;2024-01-11T04:27:08;-6.74;73.95
78896;HTU21D;68284;59.124;37.910;2024-01-11T04:29:36;-6.81;74.35
78896;HTU21D;68284;59.124;37.910;2024-01-11T04:32:02;-6.85;74.06
78896;HTU21D;68284;59.124;37.910;2024-01-11T04:34:38;-6.91;73.72
78896;HTU21D;68284;59.124;37.910;2024-01-11T04:37:05;-7.00;73.86
78896;HTU21D;68284;59.124;37.910;2024-01-11T04:39:34;-7.05;73.96
78896;HTU21D;68284;59.124;37.910;2024-01-11T04:42:03;-7.10;73.79
78896;HTU21D;68284;59.124;37.910;2024-01-11T04:44:30;-7.15;73.28
78896;HTU21D;68284;59.124;37.910;2024-01-11T04:46:56;-7.24;73.34
78896;HTU21D;68284;59.124;37.910;2024-01-11T04:49:24;-7.32;73.09
78896;HTU21D;68284;59.124;37.910;2024-01-11T04:51:51;-7.40;72.91
78896;HTU21D;68284;59.124;37.910;2024-01-11T04:54:22;-7.48;73.27
78896;HTU21D;68284;59.124;37.910;2024-01-11T04:56:49;-7.53;73.61
78896;HTU21D;68284;59.124;37.910;2024-01-11T04:59:18;-7.57;73.76
78896;HTU21D;68284;59.124;37.910;2024-01-11T05:01:46;-7.60;73.43
78896;HTU21D;68284;59.124;37.910;2024-01-11T05:04:13;-7.64;73.33
78896;HTU21D;68284;59.124;37.910;2024-01-11T05:06:43;-7.67;73.65
78896;HTU21D;68284;59.124;37.910;2024-01-11T05:09:09;-7.69;73.61
78896;HTU21D;68284;59.124;37.910;2024-01-11T05:11:37;-7.72;73.59
78896;HTU21D;68284;59.124;37.910;2024-01-11T05:14:04;-7.77;73.06
78896;HTU21D;68284;59.124;37.910;2024-01-11T05:16:31;-7.83;72.58
78896;HTU21D;68284;59.124;37.910;2024-01-11T05:18:59;-7.91;72.44
78896;HTU21D;68284;59.124;37.910;2024-01-11T05:21:26;-7.98;72.25
78896;HTU21D;68284;59.124;37.910;2024-01-11T05:23:53;-8.05;72.00
78896;HTU21D;68284;59.124;37.910;2024-01-11T05:26:21;-8.11;72.32
78896;HTU21D;68284;59.124;37.910;2024-01-11T05:28:47;-8.13;72.53
78896;HTU21D;68284;59.124;37.910;2024-01-11T05:31:15;-8.15;72.77
78896;HTU21D;68284;59.124;37.910;2024-01-11T05:33:42;-8.14;72.77
78896;HTU21D;68284;59.124;37.910;2024-01-11T05:36:10;-8.12;72.83
78896;HTU21D;68284;59.124;37.910;2024-01-11T05:38:50;-8.12;73.01
78896;HTU21D;68284;59.124;37.910;2024-01-11T05:41:20;-8.10;73.03
78896;HTU21D;68284;59.124;37.910;2024-01-11T05:43:52;-8.11;72.86
78896;HTU21D;68284;59.124;37.910;2024-01-11T05:46:23;-8.12;72.70
78896;HTU21D;68284;59.124;37.910;2024-01-11T05:49:08;-8.15;72.86
78896;HTU21D;68284;59.124;37.910;2024-01-11T05:51:34;-8.15;72.76
78896;HTU21D;68284;59.124;37.910;2024-01-11T05:54:03;-8.19;72.54
78896;HTU21D;68284;59.124;37.910;2024-01-11T05:56:30;-8.20;72.40
78896;HTU21D;68284;59.124;37.910;2024-01-11T05:58:59;-8.24;72.15
78896;HTU21D;68284;59.124;37.910;2024-01-11T06:01:27;-8.27;72.54
78896;HTU21D;68284;59.124;37.910;2024-01-11T06:03:56;-8.28;72.25
78896;HTU21D;68284;59.124;37.910;2024-01-11T06:06:22;-8.30;72.22
78896;HTU21D;68284;59.124;37.910;2024-01-11T06:09:00;-8.34;72.33
78896;HTU21D;68284;59.124;37.910;2024-01-11T06:11:29;-8.35;72.21
78896;HTU21D;68284;59.124;37.910;2024-01-11T06:14:00;-8.36;72.29
78896;HTU21D;68284;59.124;37.910;2024-01-11T06:16:34;-8.38;72.42
78896;HTU21D;68284;59.124;37.910;2024-01-11T06:19:38;-8.37;72.47
78896;HTU21D;68284;59.124;37.910;2024-01-11T06:22:14;-8.40;72.60
78896;HTU21D;68284;59.124;37.910;2024-01-11T06:24:49;-8.41;72.51
78896;HTU21D;68284;59.124;37.910;2024-01-11T06:27:23;-8.44;72.67
78896;HTU21D;68284;59.124;37.910;2024-01-11T06:29:51;-8.45;72.78
78896;HTU21D;68284;59.124;37.910;2024-01-11T06:32:17;-8.45;72.53
78896;HTU21D;68284;59.124;37.910;2024-01-11T06:34:44;-8.48;72.83
78896;HTU21D;68284;59.124;37.910;2024-01-11T06:37:12;-8.46;72.51
78896;HTU21D;68284;59.124;37.910;2024-01-11T06:39:39;-8.49;72.36
78896;HTU21D;68284;59.124;37.910;2024-01-11T06:42:07;-8.51;72.41
78896;HTU21D;68284;59.124;37.910;2024-01-11T06:44:33;-8.53;72.40
78896;HTU21D;68284;59.124;37.910;2024-01-11T06:47:00;-8.54;72.35
78896;HTU21D;68284;59.124;37.910;2024-01-11T06:49:27;-8.55;72.27
78896;HTU21D;68284;59.124;37.910;2024-01-11T06:51:55;-8.56;72.03
78896;HTU21D;68284;59.124;37.910;2024-01-11T06:54:22;-8.56;71.96
78896;HTU21D;68284;59.124;37.910;2024-01-11T06:56:49;-8.53;72.02
78896;HTU21D;68284;59.124;37.910;2024-01-11T06:59:17;-8.53;71.98
78896;HTU21D;68284;59.124;37.910;2024-01-11T07:01:43;-8.51;72.28
78896;HTU21D;68284;59.124;37.910;2024-01-11T07:04:14;-8.45;72.05
78896;HTU21D;68284;59.124;37.910;2024-01-11T07:06:58;-8.40;71.98
78896;HTU21D;68284;59.124;37.910;2024-01-11T07:09:37;-8.36;71.88
78896;HTU21D;68284;59.124;37.910;2024-01-11T07:12:11;-8.34;71.55
78896;HTU21D;68284;59.124;37.910;2024-01-11T07:14:44;-8.31;71.59
78896;HTU21D;68284;59.124;37.910;2024-01-11T07:17:18;-8.29;71.58
78896;HTU21D;68284;59.124;37.910;2024-01-11T07:19:46;-8.26;71.40
78896;HTU21D;68284;59.124;37.910;2024-01-11T07:22:33;-8.24;71.38
78896;HTU21D;68284;59.124;37.910;2024-01-11T07:25:00;-8.21;71.54
78896;HTU21D;68284;59.124;37.910;2024-01-11T07:27:27;-8.16;71.69
78896;HTU21D;68284;59.124;37.910;2024-01-11T07:29:57;-8.12;71.70
78896;HTU21D;68284;59.124;37.910;2024-01-11T07:32:24;-8.07;71.59
78896;HTU21D;68284;59.124;37.910;2024-01-11T07:34:51;-8.01;71.66
78896;HTU21D;68284;59.124;37.910;2024-01-11T07:37:18;-7.97;71.64
78896;HTU21D;68284;59.124;37.910;2024-01-11T07:39:45;-7.93;71.79
78896;HTU21D;68284;59.124;37.910;2024-01-11T07:42:11;-7.87;71.67
78896;HTU21D;68284;59.124;37.910;2024-01-11T07:44:38;-7.80;71.78
78896;HTU21D;68284;59.124;37.910;2024-01-11T07:47:05;-7.72;71.82
78896;HTU21D;68284;59.124;37.910;2024-01-11T07:49:31;-7.65;71.70
78896;HTU21D;68284;59.124;37.910;2024-01-11T07:52:00;-7.59;71.47
78896;HTU21D;68284;59.124;37.910;2024-01-11T07:54:28;-7.52;71.38
78896;HTU21D;68284;59.124;37.910;2024-01-11T07:56:58;-7.47;71.26
78896;HTU21D;68284;59.124;37.910;2024-01-11T07:59:32;-7.39;71.27
78896;HTU21D;68284;59.124;37.910;2024-01-11T08:02:10;-7.33;71.12
78896;HTU21D;68284;59.124;37.910;2024-01-11T08:04:57;-7.27;70.96
78896;HTU21D;68284;59.124;37.910;2024-01-11T08:07:27;-7.22;70.82
78896;HTU21D;68284;59.124;37.910;2024-01-11T08:09:54;-7.20;70.40
78896;HTU21D;68284;59.124;37.910;2024-01-11T08:12:23;-7.19;70.64
78896;HTU21D;68284;59.124;37.910;2024-01-11T08:14:54;-7.16;70.58
78896;HTU21D;68284;59.124;37.910;2024-01-11T08:17:21;-7.12;70.49
78896;HTU21D;68284;59.124;37.910;2024-01-11T08:19:53;-7.08;70.48
78896;HTU21D;68284;59.124;37.910;2024-01-11T08:22:23;-7.07;70.48
78896;HTU21D;68284;59.124;37.910;2024-01-11T08:24:50;-7.04;70.68
78896;HTU21D;68284;59.124;37.910;2024-01-11T08:27:33;-6.97;70.35
78896;HTU21D;68284;59.124;37.910;2024-01-11T08:30:00;-6.95;70.06
78896;HTU21D;68284;59.124;37.910;2024-01-11T08:32:27;-6.95;70.10
78896;HTU21D;68284;59.124;37.910;2024-01-11T08:34:56;-6.94;70.26
78896;HTU21D;68284;59.124;37.910;2024-01-11T08:37:25;-6.92;69.99
78896;HTU21D;68284;59.124;37.910;2024-01-11T08:39:51;-6.92;69.68
78896;HTU21D;68284;59.124;37.910;2024-01-11T08:42:18;-6.90;69.50
78896;HTU21D;68284;59.124;37.910;2024-01-11T08:44:44;-6.87;69.54
78896;HTU21D;68284;59.124;37.910;2024-01-11T08:47:12;-6.85;69.29
78896;HTU21D;68284;59.124;37.910;2024-01-11T08:49:39;-6.82;69.28
78896;HTU21D;68284;59.124;37.910;2024-01-11T08:52:08;-6.80;69.16
78896;HTU21D;68284;59.124;37.910;2024-01-11T08:54:48;-6.79;68.84
78896;HTU21D;68284;59.124;37.910;2024-01-11T08:57:17;-6.82;68.90
78896;HTU21D;68284;59.124;37.910;2024-01-11T08:59:45;-6.81;69.23
78896;HTU21D;68284;59.124;37.910;2024-01-11T09:02:11;-6.79;69.20
78896;HTU21D;68284;59.124;37.910;2024-01-11T09:04:39;-6.79;69.16
78896;HTU21D;68284;59.124;37.910;2024-01-11T09:07:05;-6.80;69.24
78896;HTU21D;68284;59.124;37.910;2024-01-11T09:09:33;-6.81;69.12
78896;HTU21D;68284;59.124;37.910;2024-01-11T09:12:02;-6.85;69.46
78896;HTU21D;68284;59.124;37.910;2024-01-11T09:14:30;-6.86;69.49
78896;HTU21D;68284;59.124;37.910;2024-01-11T09:17:04;-6.87;69.51
78896;HTU21D;68284;59.124;37.910;2024-01-11T09:19:32;-6.87;69.75
78896;HTU21D;68284;59.124;37.910;2024-01-11T09:22:03;-6.88;69.74
78896;HTU21D;68284;59.124;37.910;2024-01-11T09:24:30;-6.88;70.00
78896;HTU21D;68284;59.124;37.910;2024-01-11T09:26:57;-6.88;69.90
78896;HTU21D;68284;59.124;37.910;2024-01-11T09:29:23;-6.87;70.19
78896;HTU21D;68284;59.124;37.910;2024-01-11T09:31:51;-6.85;70.39
78896;HTU21D;68284;59.124;37.910;2024-01-11T09:34:18;-6.79;70.34
78896;HTU21D;68284;59.124;37.910;2024-01-11T09:36:44;-6.74;69.96
78896;HTU21D;68284;59.124;37.910;2024-01-11T09:39:12;-6.74;69.72
78896;HTU21D;68284;59.124;37.910;2024-01-11T09:41:44;-6.78;69.12
78896;HTU21D;68284;59.124;37.910;2024-01-11T09:44:12;-6.82;68.85
78896;HTU21D;68284;59.124;37.910;2024-01-11T09:46:39;-6.85;68.86
78896;HTU21D;68284;59.124;37.910;2024-01-11T09:49:07;-6.87;68.81
78896;HTU21D;68284;59.124;37.910;2024-01-11T09:51:37;-6.90;68.45
78896;HTU21D;68284;59.124;37.910;2024-01-11T09:54:04;-6.94;68.20
78896;HTU21D;68284;59.124;37.910;2024-01-11T09:56:35;-6.97;68.57
78896;HTU21D;68284;59.124;37.910;2024-01-11T09:59:03;-6.97;68.84
78896;HTU21D;68284;59.124;37.910;2024-01-11T10:01:32;-6.96;68.40
78896;HTU21D;68284;59.124;37.910;2024-01-11T10:03:59;-7.01;67.97
78896;HTU21D;68284;59.124;37.910;2024-01-11T10:06:27;-7.08;68.20
78896;HTU21D;68284;59.124;37.910;2024-01-11T10:08:54;-7.12;68.48
78896;HTU21D;68284;59.124;37.910;2024-01-11T10:11:22;-7.16;68.48
78896;HTU21D;68284;59.124;37.910;2024-01-11T10:13:48;-7.18;68.06
78896;HTU21D;68284;59.124;37.910;2024-01-11T10:16:17;-7.22;68.15
78896;HTU21D;68284;59.124;37.910;2024-01-11T10:18:43;-7.27;68.19
78896;HTU21D;68284;59.124;37.910;2024-01-11T10:21:12;-7.34;67.36
78896;HTU21D;68284;59.124;37.910;2024-01-11T10:23:40;-7.41;66.92
78896;HTU21D;68284;59.124;37.910;2024-01-11T10:26:09;-7.45;66.59
78896;HTU21D;68284;59.124;37.910;2024-01-11T10:28:36;-7.55;66.30
78896;HTU21D;68284;59.124;37.910;2024-01-11T10:31:07;-7.64;66.11
78896;HTU21D;68284;59.124;37.910;2024-01-11T10:33:37;-7.75;66.00
78896;HTU21D;68284;59.124;37.910;2024-01-11T10:36:09;-7.81;65.87
78896;HTU21D;68284;59.124;37.910;2024-01-11T10:38:39;-7.87;65.85
78896;HTU21D;68284;59.124;37.910;2024-01-11T10:41:06;-7.89;66.18
78896;HTU21D;68284;59.124;37.910;2024-01-11T10:43:38;-7.83;66.30
78896;HTU21D;68284;59.124;37.910;2024-01-11T10:46:05;-7.79;66.25
78896;HTU21D;68284;59.124;37.910;2024-01-11T10:48:38;-7.72;66.39
78896;HTU21D;68284;59.124;37.910;2024-01-11T10:51:10;-7.64;66.07
78896;HTU21D;68284;59.124;37.910;2024-01-11T10:53:45;-7.61;66.02
78896;HTU21D;68284;59.124;37.910;2024-01-11T10:56:15;-7.55;65.88
78896;HTU21D;68284;59.124;37.910;2024-01-11T10:58:44;-7.54;65.85
78896;HTU21D;68284;59.124;37.910;2024-01-11T11:01:14;-7.52;65.76
78896;HTU21D;68284;59.124;37.910;2024-01-11T11:03:43;-7.52;65.63
78896;HTU21D;68284;59.124;37.910;2024-01-11T11:06:14;-7.56;65.78
78896;HTU21D;68284;59.124;37.910;2024-01-11T11:08:47;-7.57;65.96
78896;HTU21D;68284;59.124;37.910;2024-01-11T11:11:18;-7.60;65.99
78896;HTU21D;68284;59.124;37.910;2024-01-11T11:13:47;-7.60;65.93
78896;HTU21D;68284;59.124;37.910;2024-01-11T11:16:17;-7.61;65.69
78896;HTU21D;68284;59.124;37.910;2024-01-11T11:18:44;-7.65;65.89
78896;HTU21D;68284;59.124;37.910;2024-01-11T11:21:11;-7.68;66.20
78896;HTU21D;68284;59.124;37.910;2024-01-11T11:23:38;-7.69;66.11
78896;HTU21D;68284;59.124;37.910;2024-01-11T11:26:17;-7.74;66.34
78896;HTU21D;68284;59.124;37.910;2024-01-11T11:28:51;-7.79;66.66
78896;HTU21D;68284;59.124;37.910;2024-01-11T11:34:02;-7.85;66.75
78896;HTU21D;68284;59.124;37.910;2024-01-11T11:36:36;-7.90;66.78
78896;HTU21D;68284;59.124;37.910;2024-01-11T11:39:02;-7.92;66.78
78896;HTU21D;68284;59.124;37.910;2024-01-11T11:41:35;-7.96;66.93
78896;HTU21D;68284;59.124;37.910;2024-01-11T11:44:04;-7.99;67.15
78896;HTU21D;68284;59.124;37.910;2024-01-11T11:46:31;-8.04;67.37
78896;HTU21D;68284;59.124;37.910;2024-01-11T11:48:59;-8.05;67.51
78896;HTU21D;68284;59.124;37.910;2024-01-11T11:51:26;-8.05;67.55
78896;HTU21D;68284;59.124;37.910;2024-01-11T11:54:03;-8.06;67.56
78896;HTU21D;68284;59.124;37.910;2024-01-11T11:56:31;-8.10;68.17
78896;HTU21D;68284;59.124;37.910;2024-01-11T11:59:02;-8.19;68.16
78896;HTU21D;68284;59.124;37.910;2024-01-11T12:01:32;-8.23;67.95
78896;HTU21D;68284;59.124;37.910;2024-01-11T12:04:08;-8.29;67.74
78896;HTU21D;68284;59.124;37.910;2024-01-11T12:06:40;-8.37;67.79
78896;HTU21D;68284;59.124;37.910;2024-01-11T12:09:07;-8.43;68.42
78896;HTU21D;68284;59.124;37.910;2024-01-11T12:11:38;-8.52;69.11
78896;HTU21D;68284;59.124;37.910;2024-01-11T12:14:11;-8.57;69.05
78896;HTU21D;68284;59.124;37.910;2024-01-11T12:16:44;-8.63;68.91
78896;HTU21D;68284;59.124;37.910;2024-01-11T12:19:18;-8.65;68.95
78896;HTU21D;68284;59.124;37.910;2024-01-11T12:21:49;-8.67;68.98
78896;HTU21D;68284;59.124;37.910;2024-01-11T12:24:22;-8.68;68.77
78896;HTU21D;68284;59.124;37.910;2024-01-11T12:26:53;-8.70;68.91
78896;HTU21D;68284;59.124;37.910;2024-01-11T12:29:29;-8.70;68.85
78896;HTU21D;68284;59.124;37.910;2024-01-11T12:31:59;-8.73;68.87
78896;HTU21D;68284;59.124;37.910;2024-01-11T12:34:28;-8.74;68.84
78896;HTU21D;68284;59.124;37.910;2024-01-11T12:36:55;-8.75;69.07
78896;HTU21D;68284;59.124;37.910;2024-01-11T12:39:30;-8.78;69.04
78896;HTU21D;68284;59.124;37.910;2024-01-11T12:41:59;-8.79;69.12
78896;HTU21D;68284;59.124;37.910;2024-01-11T12:44:26;-8.80;69.07
78896;HTU21D;68284;59.124;37.910;2024-01-11T12:46:59;-8.82;69.10
78896;HTU21D;68284;59.124;37.910;2024-01-11T12:49:30;-8.83;69.04
78896;HTU21D;68284;59.124;37.910;2024-01-11T12:51:58;-8.84;69.20
78896;HTU21D;68284;59.124;37.910;2024-01-11T12:54:32;-8.84;69.41
78896;HTU21D;68284;59.124;37.910;2024-01-11T12:57:01;-8.83;69.29
78896;HTU21D;68284;59.124;37.910;2024-01-11T12:59:29;-8.85;69.31
78896;HTU21D;68284;59.124;37.910;2024-01-11T13:02:04;-8.87;69.50
78896;HTU21D;68284;59.124;37.910;2024-01-11T13:04:36;-8.87;69.63
78896;HTU21D;68284;59.124;37.910;2024-01-11T13:07:07;-8.86;69.68
78896;HTU21D;68284;59.124;37.910;2024-01-11T13:09:34;-8.88;69.80
78896;HTU21D;68284;59.124;37.910;2024-01-11T13:12:04;-8.87;69.92
78896;HTU21D;68284;59.124;37.910;2024-01-11T13:14:33;-8.87;69.93
78896;HTU21D;68284;59.124;37.910;2024-01-11T13:17:09;-8.87;70.15
78896;HTU21D;68284;59.124;37.910;2024-01-11T13:19:37;-8.85;70.20
78896;HTU21D;68284;59.124;37.910;2024-01-11T13:22:04;-8.84;70.39
78896;HTU21D;68284;59.124;37.910;2024-01-11T13:24:31;-8.82;70.45
78896;HTU21D;68284;59.124;37.910;2024-01-11T13:26:58;-8.82;70.59
78896;HTU21D;68284;59.124;37.910;2024-01-11T13:29:43;-8.83;70.83
78896;HTU21D;68284;59.124;37.910;2024-01-11T13:32:11;-8.82;70.87
78896;HTU21D;68284;59.124;37.910;2024-01-11T13:34:38;-8.80;71.06
78896;HTU21D;68284;59.124;37.910;2024-01-11T13:37:04;-8.79;71.05
78896;HTU21D;68284;59.124;37.910;2024-01-11T13:39:32;-8.78;70.98
78896;HTU21D;68284;59.124;37.910;2024-01-11T13:42:00;-8.79;71.06
78896;HTU21D;68284;59.124;37.910;2024-01-11T13:44:30;-8.80;70.95
78896;HTU21D;68284;59.124;37.910;2024-01-11T13:47:00;-8.81;70.97
78896;HTU21D;68284;59.124;37.910;2024-01-11T13:49:30;-8.82;71.08
78896;HTU21D;68284;59.124;37.910;2024-01-11T13:51:58;-8.81;71.26
78896;HTU21D;68284;59.124;37.910;2024-01-11T13:54:28;-8.81;71.29
78896;HTU21D;68284;59.124;37.910;2024-01-11T13:56:56;-8.81;71.67
78896;HTU21D;68284;59.124;37.910;2024-01-11T13:59:25;-8.83;71.45
78896;HTU21D;68284;59.124;37.910;2024-01-11T14:01:57;-8.84;71.17
78896;HTU21D;68284;59.124;37.910;2024-01-11T14:04:29;-8.86;71.18
78896;HTU21D;68284;59.124;37.910;2024-01-11T14:07:05;-8.87;71.23
78896;HTU21D;68284;59.124;37.910;2024-01-11T14:09:35;-8.90;71.30
78896;HTU21D;68284;59.124;37.910;2024-01-11T14:12:04;-8.92;71.58
78896;HTU21D;68284;59.124;37.910;2024-01-11T14:14:31;-8.93;71.51
78896;HTU21D;68284;59.124;37.910;2024-01-11T14:16:57;-8.94;71.20
78896;HTU21D;68284;59.124;37.910;2024-01-11T14:19:27;-8.97;71.16
78896;HTU21D;68284;59.124;37.910;2024-01-11T14:22:01;-8.99;71.23
78896;HTU21D;68284;59.124;37.910;2024-01-11T14:24:30;-8.98;71.48
78896;HTU21D;68284;59.124;37.910;2024-01-11T14:27:00;-8.99;71.00
78896;HTU21D;68284;59.124;37.910;2024-01-11T14:29:28;-9.01;71.06
78896;HTU21D;68284;59.124;37.910;2024-01-11T14:31:59;-9.02;70.90
78896;HTU21D;68284;59.124;37.910;2024-01-11T14:34:35;-9.02;70.74
78896;HTU21D;68284;59.124;37.910;2024-01-11T14:37:13;-9.05;70.76
78896;HTU21D;68284;59.124;37.910;2024-01-11T14:39:43;-9.07;70.78
78896;HTU21D;68284;59.124;37.910;2024-01-11T14:42:10;-9.07;70.82
78896;HTU21D;68284;59.124;37.910;2024-01-11T14:44:38;-9.07;70.73
78896;HTU21D;68284;59.124;37.910;2024-01-11T14:47:05;-9.08;70.68
78896;HTU21D;68284;59.124;37.910;2024-01-11T14:49:33;-9.09;70.85
78896;HTU21D;68284;59.124;37.910;2024-01-11T14:51:59;-9.09;70.53
78896;HTU21D;68284;59.124;37.910;2024-01-11T14:54:26;-9.11;70.24
78896;HTU21D;68284;59.124;37.910;2024-01-11T14:56:53;-9.14;70.33
78896;HTU21D;68284;59.124;37.910;2024-01-11T14:59:21;-9.17;70.42
78896;HTU21D;68284;59.124;37.910;2024-01-11T15:01:49;-9.18;70.52
78896;HTU21D;68284;59.124;37.910;2024-01-11T15:04:16;-9.18;70.31
78896;HTU21D;68284;59.124;37.910;2024-01-11T15:06:43;-9.22;70.05
78896;HTU21D;68284;59.124;37.910;2024-01-11T15:09:14;-9.25;69.78
78896;HTU21D;68284;59.124;37.910;2024-01-11T15:11:46;-9.29;69.71
78896;HTU21D;68284;59.124;37.910;2024-01-11T15:14:12;-9.32;69.52
78896;HTU21D;68284;59.124;37.910;2024-01-11T15:16:39;-9.37;69.48